sensor_id;sensor_type;location;lat;lon;timestamp;temperature;humidity
56725;DHT22;42608;52.776;6.968;2022-11-04T00:01:19;11.90;99.90
56725;DHT22;42608;52.776;6.968;2022-11-04T00:03:44;11.80;99.90
56725;DHT22;42608;52.776;6.968;2022-11-04T00:06:10;11.90;99.90
56725;DHT22;42608;52.776;6.968;2022-11-04T00:08:35;11.80;99.90
56725;DHT22;42608;52.776;6.968;2022-11-04T00:11:01;11.80;99.90
56725;DHT22;42608;52.776;6.968;2022-11-04T00:13:45;11.80;99.90
56725;DHT22;42608;52.776;6.968;2022-11-04T00:16:11;11.80;99.90
56725;DHT22;42608;52.776;6.968;2022-11-04T00:18:56;11.70;99.90
56725;DHT22;42608;52.776;6.968;2022-11-04T00:21:21;11.70;99.90
56725;DHT22;42608;52.776;6.968;2022-11-04T00:24:05;11.60;99.90
56725;DHT22;42608;52.776;6.968;2022-11-04T00:26:51;11.50;99.90
56725;DHT22;42608;52.776;6.968;2022-11-04T00:29:35;11.40;99.90
56725;DHT22;42608;52.776;6.968;2022-11-04T00:32:01;11.40;99.90
56725;DHT22;42608;52.776;6.968;2022-11-04T00:34:45;11.30;99.90
56725;DHT22;42608;52.776;6.968;2022-11-04T00:37:10;11.20;99.90
56725;DHT22;42608;52.776;6.968;2022-11-04T00:39:36;11.20;99.90
56725;DHT22;42608;52.776;6.968;2022-11-04T00:42:01;11.20;99.90
56725;DHT22;42608;52.776;6.968;2022-11-04T00:44:27;11.20;99.90
56725;DHT22;42608;52.776;6.968;2022-11-04T00:46:52;11.20;99.90
56725;DHT22;42608;52.776;6.968;2022-11-04T00:49:18;11.10;99.90
56725;DHT22;42608;52.776;6.968;2022-11-04T00:51:44;11.10;99.90
56725;DHT22;42608;52.776;6.968;2022-11-04T00:54:09;11.10;99.90
56725;DHT22;42608;52.776;6.968;2022-11-04T00:56:38;11.10;99.90
56725;DHT22;42608;52.776;6.968;2022-11-04T00:59:04;11.10;99.90
56725;DHT22;42608;52.776;6.968;2022-11-04T01:01:29;11.10;99.90
56725;DHT22;42608;52.776;6.968;2022-11-04T01:03:55;11.10;99.90
56725;DHT22;42608;52.776;6.968;2022-11-04T01:06:21;11.00;99.90
56725;DHT22;42608;52.776;6.968;2022-11-04T01:08:47;11.00;99.90
56725;DHT22;42608;52.776;6.968;2022-11-04T01:11:13;11.00;99.90
56725;DHT22;42608;52.776;6.968;2022-11-04T01:13:39;10.90;99.90
56725;DHT22;42608;52.776;6.968;2022-11-04T01:16:06;10.90;99.90
56725;DHT22;42608;52.776;6.968;2022-11-04T01:18:32;10.90;99.90
56725;DHT22;42608;52.776;6.968;2022-11-04T01:21:01;10.90;99.90
56725;DHT22;42608;52.776;6.968;2022-11-04T01:23:27;10.90;99.90
56725;DHT22;42608;52.776;6.968;2022-11-04T01:25:53;10.90;99.90
56725;DHT22;42608;52.776;6.968;2022-11-04T01:28:18;10.90;99.90
56725;DHT22;42608;52.776;6.968;2022-11-04T01:30:44;10.90;99.90
56725;DHT22;42608;52.776;6.968;2022-11-04T01:33:09;10.80;99.90
56725;DHT22;42608;52.776;6.968;2022-11-04T01:35:35;10.80;99.90
56725;DHT22;42608;52.776;6.968;2022-11-04T01:38:00;10.80;99.90
56725;DHT22;42608;52.776;6.968;2022-11-04T01:40:26;10.80;99.90
56725;DHT22;42608;52.776;6.968;2022-11-04T01:42:51;10.80;99.90
56725;DHT22;42608;52.776;6.968;2022-11-04T01:45:17;10.80;99.90
56725;DHT22;42608;52.776;6.968;2022-11-04T01:47:46;10.80;99.90
56725;DHT22;42608;52.776;6.968;2022-11-04T01:50:20;10.70;99.90
56725;DHT22;42608;52.776;6.968;2022-11-04T01:52:52;10.70;99.90
56725;DHT22;42608;52.776;6.968;2022-11-04T01:55:34;10.70;99.90
56725;DHT22;42608;52.776;6.968;2022-11-04T01:58:02;10.70;99.90
56725;DHT22;42608;52.776;6.968;2022-11-04T02:00:31;10.70;99.90
56725;DHT22;42608;52.776;6.968;2022-11-04T02:05:26;10.80;99.90
56725;DHT22;42608;52.776;6.968;2022-11-04T02:07:53;10.80;99.90
56725;DHT22;42608;52.776;6.968;2022-11-04T02:10:19;10.80;99.90
56725;DHT22;42608;52.776;6.968;2022-11-04T02:12:46;10.80;99.90
56725;DHT22;42608;52.776;6.968;2022-11-04T02:20:28;10.80;99.90
56725;DHT22;42608;52.776;6.968;2022-11-04T02:28:16;10.90;99.90
56725;DHT22;42608;52.776;6.968;2022-11-04T02:31:04;10.90;99.90
56725;DHT22;42608;52.776;6.968;2022-11-04T02:33:36;10.80;99.90
56725;DHT22;42608;52.776;6.968;2022-11-04T02:36:04;10.90;99.90
56725;DHT22;42608;52.776;6.968;2022-11-04T02:38:39;10.90;99.90
56725;DHT22;42608;52.776;6.968;2022-11-04T02:46:20;10.90;99.90
56725;DHT22;42608;52.776;6.968;2022-11-04T02:48:52;10.90;99.90
56725;DHT22;42608;52.776;6.968;2022-11-04T02:51:27;10.90;99.90
56725;DHT22;42608;52.776;6.968;2022-11-04T02:54:02;10.90;99.90
56725;DHT22;42608;52.776;6.968;2022-11-04T02:56:29;10.90;99.90
56725;DHT22;42608;52.776;6.968;2022-11-04T02:58:57;10.80;99.90
56725;DHT22;42608;52.776;6.968;2022-11-04T03:01:25;10.80;99.90
56725;DHT22;42608;52.776;6.968;2022-11-04T03:03:53;10.80;99.90
56725;DHT22;42608;52.776;6.968;2022-11-04T03:06:21;10.80;99.90
56725;DHT22;42608;52.776;6.968;2022-11-04T03:08:49;10.80;99.90
56725;DHT22;42608;52.776;6.968;2022-11-04T03:11:19;10.80;99.90
56725;DHT22;42608;52.776;6.968;2022-11-04T03:13:58;10.80;99.90
56725;DHT22;42608;52.776;6.968;2022-11-04T03:16:27;10.80;99.90
56725;DHT22;42608;52.776;6.968;2022-11-04T03:18:59;10.80;99.90
56725;DHT22;42608;52.776;6.968;2022-11-04T03:21:27;10.70;99.90
56725;DHT22;42608;52.776;6.968;2022-11-04T03:23:54;10.70;99.90
56725;DHT22;42608;52.776;6.968;2022-11-04T03:28:48;10.70;99.90
56725;DHT22;42608;52.776;6.968;2022-11-04T03:31:19;10.70;99.90
56725;DHT22;42608;52.776;6.968;2022-11-04T03:33:52;10.70;99.90
56725;DHT22;42608;52.776;6.968;2022-11-04T03:36:18;10.70;99.90
56725;DHT22;42608;52.776;6.968;2022-11-04T03:38:44;10.70;99.90
56725;DHT22;42608;52.776;6.968;2022-11-04T03:41:14;10.60;99.90
56725;DHT22;42608;52.776;6.968;2022-11-04T03:43:42;10.60;99.90
56725;DHT22;42608;52.776;6.968;2022-11-04T03:46:07;10.60;99.90
56725;DHT22;42608;52.776;6.968;2022-11-04T03:48:33;10.60;99.90
56725;DHT22;42608;52.776;6.968;2022-11-04T03:50:59;10.60;99.90
56725;DHT22;42608;52.776;6.968;2022-11-04T03:53:25;10.50;99.90
56725;DHT22;42608;52.776;6.968;2022-11-04T03:56:02;10.50;99.90
56725;DHT22;42608;52.776;6.968;2022-11-04T04:04:07;10.50;99.90
56725;DHT22;42608;52.776;6.968;2022-11-04T04:06:36;10.40;99.90
56725;DHT22;42608;52.776;6.968;2022-11-04T04:09:04;10.40;99.90
56725;DHT22;42608;52.776;6.968;2022-11-04T04:11:50;10.40;99.90
56725;DHT22;42608;52.776;6.968;2022-11-04T04:14:26;10.40;99.90
56725;DHT22;42608;52.776;6.968;2022-11-04T04:17:27;10.30;99.90
56725;DHT22;42608;52.776;6.968;2022-11-04T04:20:00;10.30;99.90
56725;DHT22;42608;52.776;6.968;2022-11-04T04:22:27;10.20;99.90
56725;DHT22;42608;52.776;6.968;2022-11-04T04:24:55;10.20;99.90
56725;DHT22;42608;52.776;6.968;2022-11-04T04:27:39;10.20;99.90
56725;DHT22;42608;52.776;6.968;2022-11-04T04:30:07;10.10;99.90
56725;DHT22;42608;52.776;6.968;2022-11-04T04:32:35;10.10;99.90
56725;DHT22;42608;52.776;6.968;2022-11-04T04:35:01;10.10;99.90
56725;DHT22;42608;52.776;6.968;2022-11-04T04:38:03;10.00;99.90
56725;DHT22;42608;52.776;6.968;2022-11-04T04:40:52;10.00;99.90
56725;DHT22;42608;52.776;6.968;2022-11-04T04:43:40;10.00;99.90
56725;DHT22;42608;52.776;6.968;2022-11-04T04:46:25;10.00;99.90
56725;DHT22;42608;52.776;6.968;2022-11-04T04:48:51;9.90;99.90
56725;DHT22;42608;52.776;6.968;2022-11-04T04:51:17;9.90;99.90
56725;DHT22;42608;52.776;6.968;2022-11-04T04:53:43;9.90;99.90
56725;DHT22;42608;52.776;6.968;2022-11-04T04:56:08;9.90;99.90
56725;DHT22;42608;52.776;6.968;2022-11-04T04:58:34;9.90;99.90
56725;DHT22;42608;52.776;6.968;2022-11-04T05:00:59;9.80;99.90
56725;DHT22;42608;52.776;6.968;2022-11-04T05:03:25;9.90;99.90
56725;DHT22;42608;52.776;6.968;2022-11-04T05:05:50;9.90;99.90
56725;DHT22;42608;52.776;6.968;2022-11-04T05:08:16;9.90;99.90
56725;DHT22;42608;52.776;6.968;2022-11-04T05:10:41;9.80;99.90
56725;DHT22;42608;52.776;6.968;2022-11-04T05:13:08;9.80;99.90
56725;DHT22;42608;52.776;6.968;2022-11-04T05:15:53;9.80;99.90
56725;DHT22;42608;52.776;6.968;2022-11-04T05:18:19;9.80;99.90
56725;DHT22;42608;52.776;6.968;2022-11-04T05:20:44;9.80;99.90
56725;DHT22;42608;52.776;6.968;2022-11-04T05:23:10;9.80;99.90
56725;DHT22;42608;52.776;6.968;2022-11-04T05:25:38;9.80;99.90
56725;DHT22;42608;52.776;6.968;2022-11-04T05:28:04;9.80;99.90
56725;DHT22;42608;52.776;6.968;2022-11-04T05:30:30;9.80;99.90
56725;DHT22;42608;52.776;6.968;2022-11-04T05:32:56;9.80;99.90
56725;DHT22;42608;52.776;6.968;2022-11-04T05:35:21;9.80;99.90
56725;DHT22;42608;52.776;6.968;2022-11-04T05:37:47;9.70;99.90
56725;DHT22;42608;52.776;6.968;2022-11-04T05:40:12;9.70;99.90
56725;DHT22;42608;52.776;6.968;2022-11-04T05:42:38;9.70;99.90
56725;DHT22;42608;52.776;6.968;2022-11-04T05:45:04;9.70;99.90
56725;DHT22;42608;52.776;6.968;2022-11-04T05:47:29;9.70;99.90
56725;DHT22;42608;52.776;6.968;2022-11-04T05:49:55;9.60;99.90
56725;DHT22;42608;52.776;6.968;2022-11-04T05:52:21;9.60;99.90
56725;DHT22;42608;52.776;6.968;2022-11-04T05:54:46;9.50;99.90
56725;DHT22;42608;52.776;6.968;2022-11-04T05:57:12;9.50;99.90
56725;DHT22;42608;52.776;6.968;2022-11-04T05:59:37;9.50;99.90
56725;DHT22;42608;52.776;6.968;2022-11-04T06:02:03;9.50;99.90
56725;DHT22;42608;52.776;6.968;2022-11-04T06:04:29;9.50;99.90
56725;DHT22;42608;52.776;6.968;2022-11-04T06:06:54;9.50;99.90
56725;DHT22;42608;52.776;6.968;2022-11-04T06:09:20;9.40;99.90
56725;DHT22;42608;52.776;6.968;2022-11-04T06:12:12;9.40;99.90
56725;DHT22;42608;52.776;6.968;2022-11-04T06:14:41;9.40;99.90
56725;DHT22;42608;52.776;6.968;2022-11-04T06:17:08;9.30;99.90
56725;DHT22;42608;52.776;6.968;2022-11-04T06:19:36;9.30;99.90
56725;DHT22;42608;52.776;6.968;2022-11-04T06:22:01;9.30;99.90
56725;DHT22;42608;52.776;6.968;2022-11-04T06:24:28;9.30;99.90
56725;DHT22;42608;52.776;6.968;2022-11-04T06:26:53;9.30;99.90
56725;DHT22;42608;52.776;6.968;2022-11-04T06:29:19;9.30;99.90
56725;DHT22;42608;52.776;6.968;2022-11-04T06:31:45;9.30;99.90
56725;DHT22;42608;52.776;6.968;2022-11-04T06:34:10;9.40;99.90
56725;DHT22;42608;52.776;6.968;2022-11-04T06:36:36;9.40;99.90
56725;DHT22;42608;52.776;6.968;2022-11-04T06:39:02;9.40;99.90
56725;DHT22;42608;52.776;6.968;2022-11-04T06:41:28;9.40;99.90
56725;DHT22;42608;52.776;6.968;2022-11-04T06:43:54;9.40;99.90
56725;DHT22;42608;52.776;6.968;2022-11-04T06:46:26;9.40;99.90
56725;DHT22;42608;52.776;6.968;2022-11-04T06:48:52;9.40;99.90
56725;DHT22;42608;52.776;6.968;2022-11-04T06:51:19;9.40;99.90
56725;DHT22;42608;52.776;6.968;2022-11-04T06:53:44;9.40;99.90
56725;DHT22;42608;52.776;6.968;2022-11-04T06:56:10;9.40;99.90
56725;DHT22;42608;52.776;6.968;2022-11-04T06:58:35;9.40;99.90
56725;DHT22;42608;52.776;6.968;2022-11-04T07:01:01;9.40;99.90
56725;DHT22;42608;52.776;6.968;2022-11-04T07:03:26;9.40;99.90
56725;DHT22;42608;52.776;6.968;2022-11-04T07:05:52;9.30;99.90
56725;DHT22;42608;52.776;6.968;2022-11-04T07:08:18;9.30;99.90
56725;DHT22;42608;52.776;6.968;2022-11-04T07:10:43;9.30;99.90
56725;DHT22;42608;52.776;6.968;2022-11-04T07:13:09;9.30;99.90
56725;DHT22;42608;52.776;6.968;2022-11-04T07:15:36;9.30;99.90
56725;DHT22;42608;52.776;6.968;2022-11-04T07:18:02;9.30;99.90
56725;DHT22;42608;52.776;6.968;2022-11-04T07:20:28;9.30;99.90
56725;DHT22;42608;52.776;6.968;2022-11-04T07:22:53;9.30;99.90
56725;DHT22;42608;52.776;6.968;2022-11-04T07:25:19;9.30;99.90
56725;DHT22;42608;52.776;6.968;2022-11-04T07:27:45;9.30;99.90
56725;DHT22;42608;52.776;6.968;2022-11-04T07:30:10;9.30;99.90
56725;DHT22;42608;52.776;6.968;2022-11-04T07:32:36;9.30;99.90
56725;DHT22;42608;52.776;6.968;2022-11-04T07:35:01;9.30;99.90
56725;DHT22;42608;52.776;6.968;2022-11-04T07:37:27;9.30;99.90
56725;DHT22;42608;52.776;6.968;2022-11-04T07:39:52;9.30;99.90
56725;DHT22;42608;52.776;6.968;2022-11-04T07:42:18;9.30;99.90
56725;DHT22;42608;52.776;6.968;2022-11-04T07:44:45;9.30;99.90
56725;DHT22;42608;52.776;6.968;2022-11-04T07:47:11;9.30;99.90
56725;DHT22;42608;52.776;6.968;2022-11-04T07:49:36;9.30;99.90
56725;DHT22;42608;52.776;6.968;2022-11-04T07:52:02;9.30;99.90
56725;DHT22;42608;52.776;6.968;2022-11-04T07:54:28;9.30;99.90
56725;DHT22;42608;52.776;6.968;2022-11-04T07:56:53;9.30;99.90
56725;DHT22;42608;52.776;6.968;2022-11-04T07:59:19;9.30;99.90
56725;DHT22;42608;52.776;6.968;2022-11-04T08:01:44;9.30;99.90
56725;DHT22;42608;52.776;6.968;2022-11-04T08:04:10;9.40;99.90
56725;DHT22;42608;52.776;6.968;2022-11-04T08:06:35;9.40;99.90
56725;DHT22;42608;52.776;6.968;2022-11-04T08:09:01;9.40;99.90
56725;DHT22;42608;52.776;6.968;2022-11-04T08:11:26;9.40;99.90
56725;DHT22;42608;52.776;6.968;2022-11-04T08:13:53;9.40;99.90
56725;DHT22;42608;52.776;6.968;2022-11-04T08:16:19;9.50;99.90
56725;DHT22;42608;52.776;6.968;2022-11-04T08:18:46;9.50;99.90
56725;DHT22;42608;52.776;6.968;2022-11-04T08:21:13;9.50;99.90
56725;DHT22;42608;52.776;6.968;2022-11-04T08:23:38;9.50;99.90
56725;DHT22;42608;52.776;6.968;2022-11-04T08:26:07;9.50;99.90
56725;DHT22;42608;52.776;6.968;2022-11-04T08:28:34;9.60;99.90
56725;DHT22;42608;52.776;6.968;2022-11-04T08:31:07;9.60;99.90
56725;DHT22;42608;52.776;6.968;2022-11-04T08:33:33;9.70;99.90
56725;DHT22;42608;52.776;6.968;2022-11-04T08:36:00;9.70;99.90
56725;DHT22;42608;52.776;6.968;2022-11-04T08:38:25;9.70;99.90
56725;DHT22;42608;52.776;6.968;2022-11-04T08:40:51;9.70;99.90
56725;DHT22;42608;52.776;6.968;2022-11-04T08:43:17;9.70;99.90
56725;DHT22;42608;52.776;6.968;2022-11-04T08:45:43;9.70;99.90
56725;DHT22;42608;52.776;6.968;2022-11-04T08:48:09;9.70;99.90
56725;DHT22;42608;52.776;6.968;2022-11-04T08:50:35;9.70;99.90
56725;DHT22;42608;52.776;6.968;2022-11-04T08:53:01;9.70;99.90
56725;DHT22;42608;52.776;6.968;2022-11-04T08:55:30;9.80;99.90
56725;DHT22;42608;52.776;6.968;2022-11-04T08:57:56;9.80;99.90
56725;DHT22;42608;52.776;6.968;2022-11-04T09:00:22;9.80;99.90
56725;DHT22;42608;52.776;6.968;2022-11-04T09:02:48;9.80;99.90
56725;DHT22;42608;52.776;6.968;2022-11-04T09:05:13;9.80;99.90
56725;DHT22;42608;52.776;6.968;2022-11-04T09:07:39;9.80;99.90
56725;DHT22;42608;52.776;6.968;2022-11-04T09:10:05;9.80;99.90
56725;DHT22;42608;52.776;6.968;2022-11-04T09:12:31;9.90;99.90
56725;DHT22;42608;52.776;6.968;2022-11-04T09:14:56;9.90;99.90
56725;DHT22;42608;52.776;6.968;2022-11-04T09:17:22;10.00;99.90
56725;DHT22;42608;52.776;6.968;2022-11-04T09:19:48;10.00;99.90
56725;DHT22;42608;52.776;6.968;2022-11-04T09:22:13;10.00;99.90
56725;DHT22;42608;52.776;6.968;2022-11-04T09:24:39;10.00;99.90
56725;DHT22;42608;52.776;6.968;2022-11-04T09:27:04;10.00;99.90
56725;DHT22;42608;52.776;6.968;2022-11-04T09:29:30;10.00;99.90
56725;DHT22;42608;52.776;6.968;2022-11-04T09:32:01;10.00;99.90
56725;DHT22;42608;52.776;6.968;2022-11-04T09:34:27;9.90;99.90
56725;DHT22;42608;52.776;6.968;2022-11-04T09:36:55;9.90;99.90
56725;DHT22;42608;52.776;6.968;2022-11-04T09:39:21;9.90;99.90
56725;DHT22;42608;52.776;6.968;2022-11-04T09:44:24;10.00;99.90
56725;DHT22;42608;52.776;6.968;2022-11-04T09:46:51;10.00;99.90
56725;DHT22;42608;52.776;6.968;2022-11-04T09:49:18;10.00;99.90
56725;DHT22;42608;52.776;6.968;2022-11-04T09:51:45;10.10;99.90
56725;DHT22;42608;52.776;6.968;2022-11-04T09:56:53;10.20;99.90
56725;DHT22;42608;52.776;6.968;2022-11-04T09:59:21;10.30;99.90
56725;DHT22;42608;52.776;6.968;2022-11-04T10:04:45;10.40;99.90
56725;DHT22;42608;52.776;6.968;2022-11-04T10:07:22;10.40;99.90
56725;DHT22;42608;52.776;6.968;2022-11-04T10:25:31;10.60;99.90
56725;DHT22;42608;52.776;6.968;2022-11-04T10:28:00;10.50;99.90
56725;DHT22;42608;52.776;6.968;2022-11-04T10:30:26;10.50;99.90
56725;DHT22;42608;52.776;6.968;2022-11-04T10:32:58;10.60;99.90
56725;DHT22;42608;52.776;6.968;2022-11-04T10:35:36;10.60;99.90
56725;DHT22;42608;52.776;6.968;2022-11-04T10:40:48;10.70;99.90
56725;DHT22;42608;52.776;6.968;2022-11-04T10:43:15;10.70;99.90
56725;DHT22;42608;52.776;6.968;2022-11-04T10:45:54;10.70;99.90
56725;DHT22;42608;52.776;6.968;2022-11-04T10:48:24;10.70;99.90
56725;DHT22;42608;52.776;6.968;2022-11-04T10:50:56;10.60;99.90
56725;DHT22;42608;52.776;6.968;2022-11-04T10:53:24;10.60;99.90
56725;DHT22;42608;52.776;6.968;2022-11-04T10:58:34;10.60;99.90
56725;DHT22;42608;52.776;6.968;2022-11-04T11:01:20;10.70;99.90
56725;DHT22;42608;52.776;6.968;2022-11-04T11:03:46;10.70;99.90
56725;DHT22;42608;52.776;6.968;2022-11-04T11:06:13;10.70;99.90
56725;DHT22;42608;52.776;6.968;2022-11-04T11:08:39;10.80;99.90
56725;DHT22;42608;52.776;6.968;2022-11-04T11:11:05;10.80;99.90
56725;DHT22;42608;52.776;6.968;2022-11-04T11:13:41;10.80;99.90
56725;DHT22;42608;52.776;6.968;2022-11-04T11:16:11;10.80;99.90
56725;DHT22;42608;52.776;6.968;2022-11-04T11:18:37;10.80;99.90
56725;DHT22;42608;52.776;6.968;2022-11-04T11:21:05;10.80;99.90
56725;DHT22;42608;52.776;6.968;2022-11-04T11:26:01;10.90;99.90
56725;DHT22;42608;52.776;6.968;2022-11-04T11:28:27;10.90;99.90
56725;DHT22;42608;52.776;6.968;2022-11-04T11:30:58;10.90;99.90
56725;DHT22;42608;52.776;6.968;2022-11-04T11:35:53;11.00;99.90
56725;DHT22;42608;52.776;6.968;2022-11-04T11:38:22;11.10;99.90
56725;DHT22;42608;52.776;6.968;2022-11-04T11:40:50;11.10;99.90
56725;DHT22;42608;52.776;6.968;2022-11-04T11:43:28;11.20;99.90
56725;DHT22;42608;52.776;6.968;2022-11-04T11:45:54;11.20;99.90
56725;DHT22;42608;52.776;6.968;2022-11-04T11:48:38;11.30;99.90
56725;DHT22;42608;52.776;6.968;2022-11-04T11:51:04;11.30;99.90
56725;DHT22;42608;52.776;6.968;2022-11-04T11:53:30;11.30;99.90
56725;DHT22;42608;52.776;6.968;2022-11-04T11:56:02;11.40;99.90
56725;DHT22;42608;52.776;6.968;2022-11-04T12:01:00;11.40;99.90
56725;DHT22;42608;52.776;6.968;2022-11-04T12:03:30;11.50;99.90
56725;DHT22;42608;52.776;6.968;2022-11-04T12:06:11;11.50;99.90
56725;DHT22;42608;52.776;6.968;2022-11-04T12:08:45;11.60;99.90
56725;DHT22;42608;52.776;6.968;2022-11-04T12:11:32;11.60;99.90
56725;DHT22;42608;52.776;6.968;2022-11-04T12:14:01;11.60;99.90
56725;DHT22;42608;52.776;6.968;2022-11-04T12:21:37;11.70;99.90
56725;DHT22;42608;52.776;6.968;2022-11-04T12:26:44;11.80;99.90
56725;DHT22;42608;52.776;6.968;2022-11-04T12:29:17;11.80;99.90
56725;DHT22;42608;52.776;6.968;2022-11-04T12:36:52;11.80;99.90
56725;DHT22;42608;52.776;6.968;2022-11-04T12:42:37;11.90;99.90
56725;DHT22;42608;52.776;6.968;2022-11-04T12:44:56;12.00;99.90
56725;DHT22;42608;52.776;6.968;2022-11-04T12:50:05;12.10;99.90
56725;DHT22;42608;52.776;6.968;2022-11-04T13:00:07;12.40;99.90
56725;DHT22;42608;52.776;6.968;2022-11-04T13:02:39;12.40;99.90
56725;DHT22;42608;52.776;6.968;2022-11-04T13:07:32;12.40;99.90
56725;DHT22;42608;52.776;6.968;2022-11-04T13:10:04;12.40;99.90
56725;DHT22;42608;52.776;6.968;2022-11-04T13:12:37;12.40;99.90
56725;DHT22;42608;52.776;6.968;2022-11-04T13:15:06;12.50;99.90
56725;DHT22;42608;52.776;6.968;2022-11-04T13:17:37;12.40;99.90
56725;DHT22;42608;52.776;6.968;2022-11-04T13:22:38;12.00;99.90
56725;DHT22;42608;52.776;6.968;2022-11-04T13:25:07;11.80;99.90
56725;DHT22;42608;52.776;6.968;2022-11-04T13:27:38;11.60;99.90
56725;DHT22;42608;52.776;6.968;2022-11-04T13:32:37;11.30;99.90
56725;DHT22;42608;52.776;6.968;2022-11-04T13:35:14;11.20;99.90
56725;DHT22;42608;52.776;6.968;2022-11-04T13:37:51;11.10;99.90
56725;DHT22;42608;52.776;6.968;2022-11-04T13:40:21;11.00;99.90
56725;DHT22;42608;52.776;6.968;2022-11-04T13:42:53;10.90;99.90
56725;DHT22;42608;52.776;6.968;2022-11-04T13:45:51;10.90;99.90
56725;DHT22;42608;52.776;6.968;2022-11-04T13:48:18;10.80;99.90
56725;DHT22;42608;52.776;6.968;2022-11-04T13:50:44;10.80;99.90
56725;DHT22;42608;52.776;6.968;2022-11-04T13:53:18;10.80;99.90
56725;DHT22;42608;52.776;6.968;2022-11-04T13:55:48;10.70;99.90
56725;DHT22;42608;52.776;6.968;2022-11-04T13:58:22;10.70;99.90
56725;DHT22;42608;52.776;6.968;2022-11-04T14:01:08;10.70;99.90
56725;DHT22;42608;52.776;6.968;2022-11-04T14:08:26;10.60;99.90
56725;DHT22;42608;52.776;6.968;2022-11-04T14:16:12;10.50;99.90
56725;DHT22;42608;52.776;6.968;2022-11-04T14:18:56;10.50;99.90
56725;DHT22;42608;52.776;6.968;2022-11-04T14:21:23;10.50;99.90
56725;DHT22;42608;52.776;6.968;2022-11-04T14:23:58;10.60;99.90
56725;DHT22;42608;52.776;6.968;2022-11-04T14:26:25;10.50;99.90
56725;DHT22;42608;52.776;6.968;2022-11-04T14:29:02;10.50;99.90
56725;DHT22;42608;52.776;6.968;2022-11-04T14:31:44;10.50;99.90
56725;DHT22;42608;52.776;6.968;2022-11-04T14:34:24;10.50;99.90
56725;DHT22;42608;52.776;6.968;2022-11-04T14:36:54;10.40;99.90
56725;DHT22;42608;52.776;6.968;2022-11-04T14:39:21;10.50;99.90
56725;DHT22;42608;52.776;6.968;2022-11-04T14:46:43;10.50;99.90
56725;DHT22;42608;52.776;6.968;2022-11-04T14:51:52;10.50;99.90
56725;DHT22;42608;52.776;6.968;2022-11-04T14:54:19;10.50;99.90
56725;DHT22;42608;52.776;6.968;2022-11-04T14:56:45;10.50;99.90
56725;DHT22;42608;52.776;6.968;2022-11-04T14:59:21;10.50;99.90
56725;DHT22;42608;52.776;6.968;2022-11-04T15:01:46;10.50;99.90
56725;DHT22;42608;52.776;6.968;2022-11-04T15:04:34;10.40;99.90
56725;DHT22;42608;52.776;6.968;2022-11-04T15:06:59;10.40;99.90
56725;DHT22;42608;52.776;6.968;2022-11-04T15:09:26;10.40;99.90
56725;DHT22;42608;52.776;6.968;2022-11-04T15:12:26;10.40;99.90
56725;DHT22;42608;52.776;6.968;2022-11-04T15:18:05;10.30;99.90
56725;DHT22;42608;52.776;6.968;2022-11-04T15:20:32;10.20;99.90
56725;DHT22;42608;52.776;6.968;2022-11-04T15:23:00;10.30;99.90
56725;DHT22;42608;52.776;6.968;2022-11-04T15:25:27;10.20;99.90
56725;DHT22;42608;52.776;6.968;2022-11-04T15:27:53;10.20;99.90
56725;DHT22;42608;52.776;6.968;2022-11-04T15:30:26;10.20;99.90
56725;DHT22;42608;52.776;6.968;2022-11-04T15:32:56;10.20;99.90
56725;DHT22;42608;52.776;6.968;2022-11-04T15:35:22;10.10;99.90
56725;DHT22;42608;52.776;6.968;2022-11-04T15:37:51;10.10;99.90
56725;DHT22;42608;52.776;6.968;2022-11-04T15:40:18;10.10;99.90
56725;DHT22;42608;52.776;6.968;2022-11-04T15:42:44;10.00;99.90
56725;DHT22;42608;52.776;6.968;2022-11-04T15:47:42;10.00;99.90
56725;DHT22;42608;52.776;6.968;2022-11-04T15:50:18;10.00;99.90
56725;DHT22;42608;52.776;6.968;2022-11-04T15:52:54;10.00;99.90
56725;DHT22;42608;52.776;6.968;2022-11-04T15:55:21;10.00;99.90
56725;DHT22;42608;52.776;6.968;2022-11-04T15:57:48;9.90;99.90
56725;DHT22;42608;52.776;6.968;2022-11-04T16:02:47;9.90;99.90
56725;DHT22;42608;52.776;6.968;2022-11-04T16:07:39;9.90;99.90
56725;DHT22;42608;52.776;6.968;2022-11-04T16:17:59;9.90;99.90
56725;DHT22;42608;52.776;6.968;2022-11-04T16:20:25;9.80;99.90
56725;DHT22;42608;52.776;6.968;2022-11-04T16:22:58;9.90;99.90
56725;DHT22;42608;52.776;6.968;2022-11-04T16:25:31;9.90;99.90
56725;DHT22;42608;52.776;6.968;2022-11-04T16:27:58;9.80;99.90
56725;DHT22;42608;52.776;6.968;2022-11-04T16:30:23;9.80;99.90
56725;DHT22;42608;52.776;6.968;2022-11-04T16:32:50;9.80;99.90
56725;DHT22;42608;52.776;6.968;2022-11-04T16:35:18;9.80;99.90
56725;DHT22;42608;52.776;6.968;2022-11-04T16:37:44;9.80;99.90
56725;DHT22;42608;52.776;6.968;2022-11-04T16:40:10;9.80;99.90
56725;DHT22;42608;52.776;6.968;2022-11-04T16:42:36;9.80;99.90
56725;DHT22;42608;52.776;6.968;2022-11-04T16:45:02;9.80;99.90
56725;DHT22;42608;52.776;6.968;2022-11-04T16:47:28;9.80;99.90
56725;DHT22;42608;52.776;6.968;2022-11-04T16:49:58;9.80;99.90
56725;DHT22;42608;52.776;6.968;2022-11-04T16:52:24;9.80;99.90
56725;DHT22;42608;52.776;6.968;2022-11-04T16:54:49;9.80;99.90
56725;DHT22;42608;52.776;6.968;2022-11-04T16:57:15;9.80;99.90
56725;DHT22;42608;52.776;6.968;2022-11-04T16:59:41;9.80;99.90
56725;DHT22;42608;52.776;6.968;2022-11-04T17:04:45;9.80;99.90
56725;DHT22;42608;52.776;6.968;2022-11-04T17:07:11;9.70;99.90
56725;DHT22;42608;52.776;6.968;2022-11-04T17:09:36;9.70;99.90
56725;DHT22;42608;52.776;6.968;2022-11-04T17:12:02;9.70;99.90
56725;DHT22;42608;52.776;6.968;2022-11-04T17:14:28;9.70;99.90
56725;DHT22;42608;52.776;6.968;2022-11-04T17:16:53;9.70;99.90
56725;DHT22;42608;52.776;6.968;2022-11-04T17:19:19;9.70;99.90
56725;DHT22;42608;52.776;6.968;2022-11-04T17:21:44;9.60;99.90
56725;DHT22;42608;52.776;6.968;2022-11-04T17:24:10;9.60;99.90
56725;DHT22;42608;52.776;6.968;2022-11-04T17:26:36;9.60;99.90
56725;DHT22;42608;52.776;6.968;2022-11-04T17:29:02;9.60;99.90
56725;DHT22;42608;52.776;6.968;2022-11-04T17:31:28;9.60;99.90
56725;DHT22;42608;52.776;6.968;2022-11-04T17:33:53;9.50;99.90
56725;DHT22;42608;52.776;6.968;2022-11-04T17:36:19;9.50;99.90
56725;DHT22;42608;52.776;6.968;2022-11-04T17:38:45;9.50;99.90
56725;DHT22;42608;52.776;6.968;2022-11-04T17:41:11;9.50;99.90
56725;DHT22;42608;52.776;6.968;2022-11-04T17:43:55;9.50;99.90
56725;DHT22;42608;52.776;6.968;2022-11-04T17:46:30;9.40;99.90
56725;DHT22;42608;52.776;6.968;2022-11-04T17:49:20;9.40;99.90
56725;DHT22;42608;52.776;6.968;2022-11-04T17:51:46;9.40;99.90
56725;DHT22;42608;52.776;6.968;2022-11-04T17:54:12;9.40;99.90
56725;DHT22;42608;52.776;6.968;2022-11-04T17:56:38;9.40;99.90
56725;DHT22;42608;52.776;6.968;2022-11-04T17:59:05;9.40;99.90
56725;DHT22;42608;52.776;6.968;2022-11-04T18:01:31;9.40;99.90
56725;DHT22;42608;52.776;6.968;2022-11-04T18:03:57;9.40;99.90